createdAt,value
2018-09-18T00:00:11.529Z,19.68
2018-09-18T00:00:42.640Z,19.66
2018-09-18T00:01:13.851Z,19.63
2018-09-18T00:01:45.093Z,19.62
2018-09-18T00:02:16.249Z,19.62
2018-09-18T00:02:47.421Z,19.62
2018-09-18T00:03:18.554Z,19.62
2018-09-18T00:03:49.665Z,19.59
2018-09-18T00:04:20.981Z,19.61
2018-09-18T00:04:52.190Z,19.64
2018-09-18T00:05:23.311Z,19.64
2018-09-18T00:05:54.480Z,19.63
2018-09-18T00:06:25.634Z,19.61
2018-09-18T00:06:56.785Z,19.60
2018-09-18T00:07:27.903Z,19.59
2018-09-18T00:07:59.080Z,19.57
2018-09-18T00:08:30.196Z,19.58
2018-09-18T00:09:01.312Z,19.57
2018-09-18T00:09:32.458Z,19.56
2018-09-18T00:10:03.632Z,19.53
2018-09-18T00:10:34.801Z,19.51
2018-09-18T00:11:05.962Z,19.50
2018-09-18T00:11:37.074Z,19.48
2018-09-18T00:12:08.197Z,19.46
2018-09-18T00:12:39.349Z,19.44
2018-09-18T00:13:10.486Z,19.41
2018-09-18T00:13:41.601Z,19.39
2018-09-18T00:14:12.719Z,19.39
2018-09-18T00:14:43.857Z,19.40
2018-09-18T00:15:15.048Z,19.42
2018-09-18T00:15:46.259Z,19.40
2018-09-18T00:16:17.418Z,19.39
2018-09-18T00:16:48.598Z,19.39
2018-09-18T00:17:19.752Z,19.39
2018-09-18T00:17:50.863Z,19.38
2018-09-18T00:18:21.994Z,19.38
2018-09-18T00:18:53.101Z,19.33
2018-09-18T00:19:24.329Z,19.34
2018-09-18T00:19:55.504Z,19.33
2018-09-18T00:20:26.639Z,19.34
2018-09-18T00:20:57.807Z,19.34
2018-09-18T00:21:28.960Z,19.37
2018-09-18T00:22:00.074Z,19.40
2018-09-18T00:22:31.178Z,19.39
2018-09-18T00:23:02.381Z,19.36
2018-09-18T00:23:33.502Z,19.33
2018-09-18T00:24:04.668Z,19.31
2018-09-18T00:24:35.836Z,19.28
2018-09-18T00:25:07.009Z,19.25
2018-09-18T00:25:38.181Z,19.23
2018-09-18T00:26:09.347Z,19.18
2018-09-18T00:26:40.516Z,19.18
2018-09-18T00:27:11.635Z,19.18
2018-09-18T00:27:42.748Z,19.20
2018-09-18T00:28:13.863Z,19.21
2018-09-18T00:28:44.998Z,19.19
2018-09-18T00:29:16.133Z,19.22
2018-09-18T00:29:47.308Z,19.18
2018-09-18T00:30:18.447Z,19.18
2018-09-18T00:30:49.680Z,19.13
2018-09-18T00:31:20.858Z,19.11
2018-09-18T00:31:52.047Z,19.10
2018-09-18T00:32:23.241Z,19.11
2018-09-18T00:32:54.406Z,19.11
2018-09-18T00:33:25.531Z,19.11
2018-09-18T00:33:56.691Z,19.09
2018-09-18T00:34:27.838Z,19.09
2018-09-18T00:34:58.971Z,19.08
2018-09-18T00:35:30.119Z,19.06
2018-09-18T00:36:01.255Z,19.06
2018-09-18T00:36:32.357Z,19.08
2018-09-18T00:37:03.475Z,19.08
2018-09-18T00:37:34.595Z,19.08
2018-09-18T00:38:05.757Z,19.10
2018-09-18T00:38:36.963Z,19.11
2018-09-18T00:39:08.087Z,19.12
2018-09-18T00:39:39.195Z,19.15
2018-09-18T00:40:10.298Z,19.15
2018-09-18T00:40:41.437Z,19.14
2018-09-18T00:41:12.557Z,19.12
2018-09-18T00:41:43.694Z,19.11
2018-09-18T00:42:14.875Z,19.13
2018-09-18T00:42:45.998Z,19.12
2018-09-18T00:43:17.232Z,19.10
2018-09-18T00:43:48.376Z,19.10
2018-09-18T00:44:19.518Z,19.11
2018-09-18T00:44:50.690Z,19.08
2018-09-18T00:45:21.832Z,19.07
2018-09-18T00:45:52.940Z,19.02
2018-09-18T00:46:24.079Z,19.04
2018-09-18T00:46:55.283Z,19.04
2018-09-18T00:47:26.426Z,19.01
2018-09-18T00:47:57.556Z,18.99
2018-09-18T00:48:28.722Z,18.98
2018-09-18T00:48:59.837Z,18.97
2018-09-18T00:49:30.966Z,19.00
2018-09-18T00:50:02.102Z,19.05
2018-09-18T00:50:33.246Z,19.05
2018-09-18T00:51:04.356Z,19.08
2018-09-18T00:51:35.524Z,19.10
2018-09-18T00:52:06.834Z,19.12
2018-09-18T00:52:38.022Z,19.11
2018-09-18T00:53:09.160Z,19.07
2018-09-18T00:53:40.302Z,19.02
2018-09-18T00:54:11.428Z,18.98
2018-09-18T00:54:42.668Z,18.97
2018-09-18T00:55:13.851Z,18.95
2018-09-18T00:55:45.092Z,18.96
2018-09-18T00:56:16.261Z,18.94
2018-09-18T00:56:47.393Z,18.94
2018-09-18T00:57:18.632Z,18.92
2018-09-18T00:57:49.774Z,18.94
2018-09-18T00:58:20.887Z,18.93
2018-09-18T00:58:52.044Z,18.91
2018-09-18T00:59:23.245Z,18.89
2018-09-18T00:59:54.425Z,18.87
2018-09-18T01:00:25.607Z,18.84
2018-09-18T01:00:56.713Z,18.80
2018-09-18T01:01:27.819Z,18.73
2018-09-18T01:01:58.928Z,18.71
2018-09-18T01:02:30.140Z,18.69
2018-09-18T01:03:01.328Z,18.70
2018-09-18T01:03:32.527Z,18.73
2018-09-18T01:04:03.694Z,18.73
2018-09-18T01:04:34.830Z,18.71
2018-09-18T01:05:05.964Z,18.65
2018-09-18T01:05:37.123Z,18.63
2018-09-18T01:06:08.360Z,18.61
2018-09-18T01:06:39.491Z,18.60
2018-09-18T01:07:10.725Z,18.61
2018-09-18T01:07:41.868Z,18.58
2018-09-18T01:08:12.987Z,18.59
2018-09-18T01:08:44.139Z,18.59
2018-09-18T01:09:15.312Z,18.58
2018-09-18T01:09:46.419Z,18.57
2018-09-18T01:10:17.546Z,18.59
2018-09-18T01:10:48.695Z,18.60
2018-09-18T01:11:19.790Z,18.61
2018-09-18T01:11:50.950Z,18.60
2018-09-18T01:12:22.075Z,18.58
2018-09-18T01:12:53.222Z,18.57
2018-09-18T01:13:24.378Z,18.56
2018-09-18T01:13:55.551Z,18.54
2018-09-18T01:14:26.667Z,18.56
2018-09-18T01:14:57.843Z,18.55
2018-09-18T01:15:28.980Z,18.56
2018-09-18T01:16:00.098Z,18.55
2018-09-18T01:16:31.225Z,18.52
2018-09-18T01:17:02.386Z,18.53
2018-09-18T01:17:33.560Z,18.51
2018-09-18T01:18:04.716Z,18.50
2018-09-18T01:18:35.836Z,18.48
2018-09-18T01:19:07.001Z,18.46
2018-09-18T01:19:38.148Z,17.94
2018-09-18T01:20:09.255Z,18.42
2018-09-18T01:20:40.363Z,18.38
2018-09-18T01:21:11.470Z,18.38
2018-09-18T01:21:42.654Z,18.39
2018-09-18T01:22:13.826Z,18.39
2018-09-18T01:22:44.951Z,18.38
2018-09-18T01:23:16.090Z,18.37
2018-09-18T01:23:47.220Z,18.37
2018-09-18T01:24:18.335Z,18.35
2018-09-18T01:24:49.460Z,18.34
2018-09-18T01:25:20.586Z,18.37
2018-09-18T01:25:51.712Z,18.39
2018-09-18T01:26:22.845Z,18.40
2018-09-18T01:26:54.050Z,18.39
2018-09-18T01:27:25.182Z,18.39
2018-09-18T01:27:56.295Z,18.40
2018-09-18T01:28:27.456Z,18.40
2018-09-18T01:28:58.692Z,18.40
2018-09-18T01:29:29.802Z,18.41
2018-09-18T01:30:00.935Z,18.41
2018-09-18T01:30:32.119Z,18.40
2018-09-18T01:31:03.349Z,18.39
2018-09-18T01:31:34.484Z,18.40
2018-09-18T01:32:05.619Z,18.39
2018-09-18T01:32:36.722Z,18.41
2018-09-18T01:33:07.920Z,18.41
2018-09-18T01:33:39.062Z,18.39
2018-09-18T01:34:10.318Z,18.39
2018-09-18T01:34:41.423Z,18.38
2018-09-18T01:35:12.536Z,18.38
2018-09-18T01:35:43.752Z,18.40
2018-09-18T01:36:14.935Z,18.39
2018-09-18T01:36:46.063Z,18.37
2018-09-18T01:37:17.208Z,18.35
2018-09-18T01:37:48.391Z,18.36
2018-09-18T01:38:19.596Z,18.40
2018-09-18T01:38:50.711Z,18.42
2018-09-18T01:39:21.890Z,18.43
2018-09-18T01:39:53.085Z,18.46
2018-09-18T01:40:24.199Z,18.47
2018-09-18T01:40:55.339Z,18.48
2018-09-18T01:41:26.857Z,18.47
2018-09-18T01:41:57.998Z,18.47
2018-09-18T01:42:29.187Z,18.46
2018-09-18T01:43:00.347Z,18.45
2018-09-18T01:43:31.502Z,18.44
2018-09-18T01:44:02.675Z,18.44
2018-09-18T01:44:33.800Z,18.42
2018-09-18T01:45:04.951Z,18.40
2018-09-18T01:45:36.064Z,18.41
2018-09-18T01:46:07.194Z,18.38
2018-09-18T01:46:38.304Z,18.37
2018-09-18T01:47:09.439Z,18.37
2018-09-18T01:47:40.576Z,18.36
2018-09-18T01:48:11.706Z,18.35
2018-09-18T01:48:42.916Z,18.36
2018-09-18T01:49:14.061Z,18.34
2018-09-18T01:49:45.177Z,18.32
2018-09-18T01:50:16.313Z,18.30
2018-09-18T01:50:47.433Z,18.28
2018-09-18T01:51:18.539Z,18.26
2018-09-18T01:51:49.667Z,18.26
2018-09-18T01:52:20.776Z,18.25
2018-09-18T01:52:51.920Z,18.23
2018-09-18T01:53:23.084Z,18.21
2018-09-18T01:53:54.272Z,18.23
2018-09-18T01:54:25.447Z,18.26
2018-09-18T01:54:56.554Z,18.25
2018-09-18T01:55:27.708Z,18.23
2018-09-18T01:55:58.846Z,18.21
2018-09-18T01:56:29.958Z,18.21
2018-09-18T01:57:01.153Z,18.22
2018-09-18T01:57:32.287Z,18.26
2018-09-18T01:58:03.405Z,18.30
2018-09-18T01:58:34.530Z,18.34
2018-09-18T01:59:05.702Z,18.40
2018-09-18T01:59:36.894Z,18.46
2018-09-18T02:00:08.070Z,18.51
2018-09-18T02:00:39.225Z,18.54
2018-09-18T02:01:10.351Z,18.54
2018-09-18T02:01:41.525Z,18.54
2018-09-18T02:02:12.755Z,18.53
2018-09-18T02:02:43.879Z,18.54
2018-09-18T02:03:14.984Z,18.53
2018-09-18T02:03:46.125Z,18.52
2018-09-18T02:04:17.233Z,18.53
2018-09-18T02:04:48.374Z,18.56
2018-09-18T02:05:19.506Z,18.58
2018-09-18T02:05:50.620Z,18.59
2018-09-18T02:06:21.786Z,18.61
2018-09-18T02:06:52.922Z,18.62
2018-09-18T02:07:24.072Z,18.62
2018-09-18T02:07:55.227Z,18.62
2018-09-18T02:08:26.403Z,18.60
2018-09-18T02:08:57.591Z,18.59
2018-09-18T02:09:28.708Z,18.59
2018-09-18T02:09:59.860Z,18.58
2018-09-18T02:10:30.994Z,18.58
2018-09-18T02:11:02.112Z,18.56
2018-09-18T02:11:33.226Z,18.55
2018-09-18T02:12:04.434Z,18.55
2018-09-18T02:12:35.550Z,18.55
2018-09-18T02:13:06.668Z,18.56
2018-09-18T02:13:37.778Z,18.53
2018-09-18T02:14:08.940Z,18.57
2018-09-18T02:14:40.079Z,18.55
2018-09-18T02:15:11.233Z,18.56
2018-09-18T02:15:42.345Z,18.56
2018-09-18T02:16:13.452Z,18.54
2018-09-18T02:16:44.628Z,18.55
2018-09-18T02:17:15.806Z,18.58
2018-09-18T02:17:46.977Z,18.61
2018-09-18T02:18:18.108Z,18.64
2018-09-18T02:18:49.206Z,18.66
2018-09-18T02:19:20.345Z,18.65
2018-09-18T02:19:51.502Z,18.63
2018-09-18T02:20:22.620Z,18.60
2018-09-18T02:20:53.732Z,18.58
2018-09-18T02:21:24.871Z,18.57
2018-09-18T02:21:56.005Z,18.54
2018-09-18T02:22:27.139Z,18.52
2018-09-18T02:22:58.323Z,18.53
2018-09-18T02:23:29.443Z,18.55
2018-09-18T02:24:00.564Z,18.56
2018-09-18T02:24:31.693Z,18.57
2018-09-18T02:25:02.791Z,18.57
2018-09-18T02:25:33.967Z,18.59
2018-09-18T02:26:05.095Z,18.59
2018-09-18T02:26:36.259Z,18.55
2018-09-18T02:27:07.390Z,18.55
2018-09-18T02:27:38.550Z,18.52
2018-09-18T02:28:09.690Z,18.47
2018-09-18T02:28:40.857Z,18.45
2018-09-18T02:29:11.989Z,18.45
2018-09-18T02:29:43.171Z,18.44
2018-09-18T02:30:14.308Z,18.43
2018-09-18T02:30:45.439Z,18.45
2018-09-18T02:31:16.552Z,18.45
2018-09-18T02:31:47.715Z,18.45
2018-09-18T02:32:18.851Z,18.44
2018-09-18T02:32:49.986Z,18.45
2018-09-18T02:33:21.182Z,18.41
2018-09-18T02:33:52.332Z,18.38
2018-09-18T02:34:23.500Z,18.36
2018-09-18T02:34:54.738Z,18.39
2018-09-18T02:35:25.848Z,18.39
2018-09-18T02:35:56.982Z,18.42
2018-09-18T02:36:28.111Z,18.43
2018-09-18T02:36:59.229Z,18.47
2018-09-18T02:37:30.338Z,18.50
2018-09-18T02:38:01.504Z,18.34
2018-09-18T02:38:32.611Z,18.50
2018-09-18T02:39:03.789Z,18.49
2018-09-18T02:39:34.953Z,18.45
2018-09-18T02:40:06.121Z,18.41
2018-09-18T02:40:37.249Z,18.40
2018-09-18T02:41:08.410Z,18.39
2018-09-18T02:41:39.527Z,18.38
2018-09-18T02:42:10.652Z,18.40
2018-09-18T02:42:41.816Z,18.40
2018-09-18T02:43:12.949Z,18.43
2018-09-18T02:43:44.050Z,18.43
2018-09-18T02:44:15.174Z,18.43
2018-09-18T02:44:46.293Z,18.43
2018-09-18T02:45:17.464Z,18.42
2018-09-18T02:45:48.652Z,18.41
2018-09-18T02:46:19.851Z,18.37
2018-09-18T02:46:51.027Z,18.35
2018-09-18T02:47:22.124Z,18.32
2018-09-18T02:47:53.250Z,18.34
2018-09-18T02:48:24.426Z,18.34
2018-09-18T02:48:55.601Z,18.34
2018-09-18T02:49:26.706Z,18.32
2018-09-18T02:49:58.742Z,18.32
2018-09-18T02:50:29.940Z,18.22
2018-09-18T02:51:01.111Z,18.15
2018-09-18T02:51:32.251Z,18.14
2018-09-18T02:52:03.468Z,18.14
2018-09-18T02:52:34.643Z,18.12
2018-09-18T02:53:05.805Z,18.13
2018-09-18T02:53:36.937Z,18.10
2018-09-18T02:54:08.082Z,18.08
2018-09-18T02:54:39.218Z,18.06
2018-09-18T02:55:10.343Z,18.04
2018-09-18T02:55:41.492Z,18.03
2018-09-18T02:56:12.623Z,18.02
2018-09-18T02:56:43.727Z,18.01
2018-09-18T02:57:14.862Z,18.00
2018-09-18T02:57:46.006Z,18.00
2018-09-18T02:58:17.175Z,17.98
2018-09-18T02:58:48.300Z,17.96
2018-09-18T02:59:19.410Z,17.94
2018-09-18T02:59:50.528Z,17.93
2018-09-18T03:00:21.650Z,17.91
2018-09-18T03:00:52.793Z,17.88
2018-09-18T03:01:23.930Z,17.87
2018-09-18T03:01:55.065Z,17.86
2018-09-18T03:02:26.285Z,17.85
2018-09-18T03:02:57.426Z,17.84
2018-09-18T03:03:28.552Z,17.81
2018-09-18T03:03:59.687Z,17.84
2018-09-18T03:04:30.801Z,17.83
2018-09-18T03:05:02.037Z,17.82
2018-09-18T03:05:33.173Z,17.75
2018-09-18T03:06:04.293Z,17.71
2018-09-18T03:06:35.440Z,17.70
2018-09-18T03:07:06.570Z,17.65
2018-09-18T03:07:37.772Z,17.62
2018-09-18T03:08:08.958Z,17.61
2018-09-18T03:08:40.106Z,17.58
2018-09-18T03:09:11.224Z,17.57
2018-09-18T03:09:42.344Z,17.54
2018-09-18T03:10:13.463Z,17.53
2018-09-18T03:10:44.599Z,17.50
2018-09-18T03:11:15.835Z,17.47
2018-09-18T03:11:46.980Z,17.43
2018-09-18T03:12:18.132Z,17.42
2018-09-18T03:12:49.238Z,17.38
2018-09-18T03:13:20.396Z,17.36
2018-09-18T03:13:51.579Z,17.31
2018-09-18T03:14:22.725Z,17.27
2018-09-18T03:14:53.846Z,17.23
2018-09-18T03:15:25.029Z,17.21
2018-09-18T03:15:56.174Z,17.19
2018-09-18T03:16:27.274Z,17.20
2018-09-18T03:16:58.453Z,17.19
2018-09-18T03:17:29.583Z,17.19
2018-09-18T03:18:00.774Z,17.19
2018-09-18T03:18:32.502Z,17.19
2018-09-18T03:19:03.681Z,17.17
2018-09-18T03:19:34.885Z,17.16
2018-09-18T03:20:06.052Z,17.15
2018-09-18T03:20:37.243Z,17.15
2018-09-18T03:21:08.494Z,17.16
2018-09-18T03:21:39.617Z,17.16
2018-09-18T03:22:10.805Z,17.14
2018-09-18T03:22:41.903Z,17.12
2018-09-18T03:23:13.279Z,17.12
2018-09-18T03:23:44.415Z,17.12
2018-09-18T03:24:15.572Z,17.11
2018-09-18T03:24:46.695Z,17.13
2018-09-18T03:25:17.804Z,17.13
2018-09-18T03:25:48.968Z,17.13
2018-09-18T03:26:20.086Z,17.12
2018-09-18T03:26:51.221Z,17.11
2018-09-18T03:27:22.448Z,17.11
2018-09-18T03:27:53.575Z,17.09
2018-09-18T03:28:24.807Z,17.09
2018-09-18T03:28:55.940Z,17.08
2018-09-18T03:29:27.072Z,17.08
2018-09-18T03:29:58.209Z,17.08
2018-09-18T03:30:29.369Z,17.08
2018-09-18T03:31:00.487Z,17.07
2018-09-18T03:31:31.660Z,17.08
2018-09-18T03:32:02.769Z,17.05
2018-09-18T03:32:33.932Z,17.04
2018-09-18T03:33:05.059Z,17.02
2018-09-18T03:33:36.211Z,16.99
2018-09-18T03:34:07.380Z,16.99
2018-09-18T03:34:38.510Z,16.98
2018-09-18T03:35:09.680Z,16.98
2018-09-18T03:35:40.932Z,16.98
2018-09-18T03:36:12.041Z,17.00
2018-09-18T03:36:43.148Z,17.01
2018-09-18T03:37:14.295Z,17.02
2018-09-18T03:37:45.418Z,17.02
2018-09-18T03:38:16.573Z,17.01
2018-09-18T03:38:47.671Z,17.01
2018-09-18T03:39:18.772Z,17.02
2018-09-18T03:39:49.883Z,17.01
2018-09-18T03:40:21.001Z,17.00
2018-09-18T03:40:52.168Z,16.99
2018-09-18T03:41:23.289Z,16.98
2018-09-18T03:41:54.438Z,16.97
2018-09-18T03:42:25.574Z,16.97
2018-09-18T03:42:56.701Z,16.97
2018-09-18T03:43:27.925Z,16.97
2018-09-18T03:43:59.160Z,16.96
2018-09-18T03:44:30.276Z,16.94
2018-09-18T03:45:01.392Z,16.92
2018-09-18T03:45:32.588Z,16.92
2018-09-18T03:46:03.661Z,16.91
2018-09-18T03:46:34.775Z,16.91
2018-09-18T03:47:05.924Z,16.89
2018-09-18T03:47:37.071Z,16.87
2018-09-18T03:48:08.243Z,16.86
2018-09-18T03:48:39.425Z,16.85
2018-09-18T03:49:10.540Z,16.86
2018-09-18T03:49:41.657Z,16.84
2018-09-18T03:50:12.794Z,16.84
2018-09-18T03:50:43.922Z,16.83
2018-09-18T03:51:15.036Z,16.83
2018-09-18T03:51:46.148Z,16.83
2018-09-18T03:52:17.320Z,16.82
2018-09-18T03:52:48.427Z,16.82
2018-09-18T03:53:19.574Z,16.80
2018-09-18T03:53:50.754Z,16.77
2018-09-18T03:54:21.892Z,16.78
2018-09-18T03:54:53.049Z,16.76
2018-09-18T03:55:24.173Z,16.74
2018-09-18T03:55:55.364Z,16.74
2018-09-18T03:56:26.473Z,16.75
2018-09-18T03:56:57.592Z,16.76
2018-09-18T03:57:28.834Z,16.75
2018-09-18T03:58:00.012Z,16.75
2018-09-18T03:58:31.207Z,16.75
2018-09-18T03:59:02.328Z,16.73
2018-09-18T03:59:33.493Z,16.71
2018-09-18T04:00:04.712Z,16.68
2018-09-18T04:00:35.828Z,16.64
2018-09-18T04:01:06.959Z,16.61
2018-09-18T04:01:38.127Z,16.58
2018-09-18T04:02:09.236Z,16.55
2018-09-18T04:02:40.411Z,16.54
2018-09-18T04:03:11.538Z,16.54
2018-09-18T04:03:42.678Z,16.55
2018-09-18T04:04:13.792Z,16.59
2018-09-18T04:04:44.951Z,16.58
2018-09-18T04:05:16.061Z,16.56
2018-09-18T04:05:47.171Z,16.55
2018-09-18T04:06:18.281Z,16.53
2018-09-18T04:06:49.429Z,16.53
2018-09-18T04:07:20.559Z,16.53
2018-09-18T04:07:51.699Z,16.53
2018-09-18T04:08:22.868Z,16.50
2018-09-18T04:08:53.989Z,16.50
2018-09-18T04:09:25.146Z,16.51
2018-09-18T04:09:56.377Z,16.52
2018-09-18T04:10:27.498Z,16.52
2018-09-18T04:10:58.627Z,16.53
2018-09-18T04:11:29.792Z,16.51
2018-09-18T04:12:01.030Z,16.52
2018-09-18T04:12:32.142Z,16.50
2018-09-18T04:13:03.244Z,16.51
2018-09-18T04:13:34.379Z,16.49
2018-09-18T04:14:05.522Z,16.49
2018-09-18T04:14:36.663Z,16.49
2018-09-18T04:15:07.825Z,16.49
2018-09-18T04:15:38.943Z,16.48
2018-09-18T04:16:10.070Z,16.46
2018-09-18T04:16:41.203Z,16.50
2018-09-18T04:17:12.413Z,16.50
2018-09-18T04:17:43.518Z,16.50
2018-09-18T04:18:14.635Z,16.54
2018-09-18T04:18:45.749Z,16.57
2018-09-18T04:19:16.945Z,16.63
2018-09-18T04:19:48.089Z,16.69
2018-09-18T04:20:19.297Z,16.75
2018-09-18T04:20:50.434Z,16.81
2018-09-18T04:21:21.543Z,16.84
2018-09-18T04:21:52.656Z,16.91
2018-09-18T04:22:23.776Z,16.98
2018-09-18T04:22:54.894Z,17.07
2018-09-18T04:23:26.008Z,17.14
2018-09-18T04:23:57.132Z,17.21
2018-09-18T04:24:28.258Z,17.28
2018-09-18T04:24:59.389Z,17.34
2018-09-18T04:25:30.558Z,17.40
2018-09-18T04:26:01.730Z,17.47
2018-09-18T04:26:32.840Z,17.54
2018-09-18T04:27:03.947Z,17.62
2018-09-18T04:27:35.065Z,17.69
2018-09-18T04:28:06.196Z,17.75
2018-09-18T04:28:37.394Z,17.82
2018-09-18T04:29:08.544Z,17.90
2018-09-18T04:29:39.679Z,17.97
2018-09-18T04:30:10.818Z,18.02
2018-09-18T04:30:42.026Z,18.10
2018-09-18T04:31:13.164Z,18.15
2018-09-18T04:31:44.278Z,18.22
2018-09-18T04:32:15.410Z,18.30
2018-09-18T04:32:46.574Z,18.38
2018-09-18T04:33:17.687Z,18.49
2018-09-18T04:33:48.804Z,18.58
2018-09-18T04:34:19.975Z,18.67
2018-09-18T04:34:51.074Z,18.76
2018-09-18T04:35:22.207Z,18.86
2018-09-18T04:35:53.385Z,18.93
2018-09-18T04:36:24.500Z,19.03
2018-09-18T04:36:55.621Z,19.12
2018-09-18T04:37:26.749Z,19.18
2018-09-18T04:37:57.882Z,19.24
2018-09-18T04:38:29.039Z,19.31
2018-09-18T04:39:00.161Z,19.38
2018-09-18T04:39:31.272Z,19.46
2018-09-18T04:40:02.374Z,19.54
2018-09-18T04:40:33.600Z,19.61
2018-09-18T04:41:04.779Z,19.70
2018-09-18T04:41:35.910Z,19.77
2018-09-18T04:42:07.121Z,19.86
2018-09-18T04:42:38.229Z,19.95
2018-09-18T04:43:09.452Z,20.04
2018-09-18T04:43:40.612Z,20.11
2018-09-18T04:44:11.788Z,20.18
2018-09-18T04:44:42.944Z,20.23
2018-09-18T04:45:14.146Z,20.28
2018-09-18T04:45:45.344Z,20.31
2018-09-18T04:46:16.498Z,20.35
2018-09-18T04:46:47.638Z,20.38
2018-09-18T04:47:18.865Z,20.42
2018-09-18T04:47:50.037Z,20.48
2018-09-18T04:48:21.215Z,20.54
2018-09-18T04:48:52.365Z,20.62
2018-09-18T04:49:23.548Z,20.69
2018-09-18T04:49:54.663Z,20.75
2018-09-18T04:50:25.807Z,20.81
2018-09-18T04:50:56.930Z,20.85
2018-09-18T04:51:28.059Z,20.92
2018-09-18T04:51:59.237Z,20.97
2018-09-18T04:52:30.421Z,20.98
2018-09-18T04:53:01.553Z,21.00
2018-09-18T04:53:32.692Z,21.02
2018-09-18T04:54:03.853Z,21.03
2018-09-18T04:54:34.975Z,21.03
2018-09-18T04:55:06.242Z,21.03
2018-09-18T04:55:37.356Z,21.06
2018-09-18T04:56:08.470Z,21.14
2018-09-18T04:56:39.611Z,21.15
2018-09-18T04:57:10.770Z,21.12
2018-09-18T04:57:41.965Z,21.11
2018-09-18T04:58:13.207Z,21.10
2018-09-18T04:58:44.359Z,21.05
2018-09-18T04:59:15.528Z,21.09
2018-09-18T04:59:46.704Z,21.12
2018-09-18T05:00:17.829Z,21.09
2018-09-18T05:00:49.006Z,21.13
2018-09-18T05:01:20.149Z,21.18
2018-09-18T05:01:51.318Z,21.25
2018-09-18T05:02:22.447Z,21.30
2018-09-18T05:02:53.637Z,21.37
2018-09-18T05:03:24.874Z,21.38
2018-09-18T05:03:56.001Z,21.37
2018-09-18T05:04:27.153Z,21.37
2018-09-18T05:04:58.296Z,21.34
2018-09-18T05:05:29.434Z,21.30
2018-09-18T05:06:00.628Z,21.24
2018-09-18T05:06:31.750Z,21.15
2018-09-18T05:07:02.866Z,21.07
2018-09-18T05:07:34.035Z,21.01
2018-09-18T05:08:05.224Z,20.92
2018-09-18T05:08:36.411Z,20.86
2018-09-18T05:09:07.529Z,20.83
2018-09-18T05:09:38.742Z,20.80
2018-09-18T05:10:09.942Z,20.79
2018-09-18T05:10:41.042Z,20.80
2018-09-18T05:11:12.178Z,20.78
2018-09-18T05:11:43.290Z,20.76
2018-09-18T05:12:14.476Z,20.72
2018-09-18T05:12:45.655Z,20.73
2018-09-18T05:13:16.835Z,20.70
2018-09-18T05:13:47.944Z,20.64
2018-09-18T05:14:19.208Z,20.61
2018-09-18T05:14:50.359Z,20.65
2018-09-18T05:15:21.495Z,20.65
2018-09-18T05:15:52.610Z,20.67
2018-09-18T05:16:23.792Z,20.68
2018-09-18T05:16:54.913Z,20.65
2018-09-18T05:17:26.127Z,20.64
2018-09-18T05:17:57.301Z,20.62
2018-09-18T05:18:28.470Z,20.63
2018-09-18T05:18:59.597Z,20.58
2018-09-18T05:19:30.717Z,20.54
2018-09-18T05:20:01.885Z,20.52
2018-09-18T05:20:33.033Z,20.46
2018-09-18T05:21:04.163Z,20.40
2018-09-18T05:21:35.335Z,20.36
2018-09-18T05:22:06.471Z,20.37
2018-09-18T05:22:37.581Z,20.36
2018-09-18T05:23:08.845Z,20.37
2018-09-18T05:23:39.961Z,20.40
2018-09-18T05:24:11.090Z,20.36
2018-09-18T05:24:42.216Z,20.36
2018-09-18T05:25:13.335Z,20.37
2018-09-18T05:25:44.469Z,20.39
2018-09-18T05:26:15.591Z,20.33
2018-09-18T05:26:46.816Z,20.26
2018-09-18T05:27:17.939Z,20.20
2018-09-18T05:27:49.146Z,20.24
2018-09-18T05:28:20.326Z,20.28
2018-09-18T05:28:51.438Z,20.33
2018-09-18T05:29:25.487Z,20.33
2018-09-18T05:29:56.746Z,20.35
2018-09-18T05:30:27.960Z,20.37
2018-09-18T05:30:59.091Z,20.36
2018-09-18T05:31:30.282Z,20.39
2018-09-18T05:32:01.438Z,20.38
2018-09-18T05:32:32.574Z,20.44
2018-09-18T05:33:03.694Z,20.44
2018-09-18T05:33:34.895Z,20.47
2018-09-18T05:34:06.011Z,20.45
2018-09-18T05:34:37.159Z,20.46
2018-09-18T05:35:08.350Z,20.51
2018-09-18T05:35:39.555Z,20.53
2018-09-18T05:36:10.659Z,20.57
2018-09-18T05:36:41.834Z,20.60
2018-09-18T05:37:12.984Z,20.62
2018-09-18T05:37:44.120Z,20.60
2018-09-18T05:38:15.404Z,20.59
2018-09-18T05:38:46.526Z,20.57
2018-09-18T05:39:17.645Z,20.57
2018-09-18T05:39:48.846Z,20.58
2018-09-18T05:40:20.025Z,20.61
2018-09-18T05:40:51.171Z,20.61
2018-09-18T05:41:22.309Z,20.64
2018-09-18T05:41:53.491Z,20.65
2018-09-18T05:42:24.645Z,20.70
2018-09-18T05:42:55.785Z,20.75
2018-09-18T05:43:26.935Z,20.60
2018-09-18T05:43:58.077Z,20.51
2018-09-18T05:44:29.265Z,20.48
2018-09-18T05:45:00.571Z,20.47
2018-09-18T05:45:31.740Z,20.45
2018-09-18T05:46:02.914Z,20.44
2018-09-18T05:46:34.103Z,20.41
2018-09-18T05:47:08.626Z,20.40
2018-09-18T05:47:39.817Z,20.41
2018-09-18T05:48:10.991Z,20.44
2018-09-18T05:48:42.145Z,20.35
2018-09-18T05:49:13.341Z,20.29
2018-09-18T05:49:44.467Z,20.27
2018-09-18T05:50:15.580Z,20.23
2018-09-18T05:50:46.686Z,20.32
2018-09-18T05:51:17.791Z,20.36
2018-09-18T05:51:48.914Z,20.44
2018-09-18T05:52:20.083Z,20.48
2018-09-18T05:52:51.282Z,20.51
2018-09-18T05:53:22.428Z,20.55
2018-09-18T05:53:53.548Z,20.62
2018-09-18T05:54:24.655Z,20.64
2018-09-18T05:54:55.780Z,20.70
2018-09-18T05:55:26.942Z,20.69
2018-09-18T05:55:58.153Z,20.68
2018-09-18T05:56:29.293Z,20.67
2018-09-18T05:57:00.468Z,20.66
2018-09-18T05:57:31.824Z,20.65
2018-09-18T05:58:03.056Z,20.70
2018-09-18T05:58:34.168Z,20.76
2018-09-18T05:59:05.293Z,20.81
2018-09-18T05:59:36.508Z,20.86
2018-09-18T06:00:07.711Z,20.90
2018-09-18T06:00:38.893Z,20.93
2018-09-18T06:01:10.088Z,20.92
2018-09-18T06:01:41.254Z,20.90
2018-09-18T06:02:12.431Z,20.83
2018-09-18T06:02:43.697Z,20.81
2018-09-18T06:03:14.859Z,20.79
2018-09-18T06:03:46.012Z,20.80
2018-09-18T06:04:17.137Z,20.85
2018-09-18T06:04:48.265Z,20.87
2018-09-18T06:05:19.443Z,20.84
2018-09-18T06:05:50.631Z,17.61
2018-09-18T06:06:21.826Z,20.76
2018-09-18T06:06:52.964Z,20.77
2018-09-18T06:07:24.085Z,20.62
2018-09-18T06:07:55.328Z,20.79
2018-09-18T06:08:26.520Z,20.80
2018-09-18T06:08:57.642Z,20.81
2018-09-18T06:09:28.845Z,20.65
2018-09-18T06:10:00.027Z,20.81
2018-09-18T06:10:31.185Z,20.79
2018-09-18T06:11:02.345Z,20.78
2018-09-18T06:11:33.487Z,20.80
2018-09-18T06:12:04.679Z,20.83
2018-09-18T06:12:35.904Z,20.84
2018-09-18T06:13:07.053Z,20.80
2018-09-18T06:13:38.696Z,20.80
2018-09-18T06:14:09.829Z,20.77
2018-09-18T06:14:40.995Z,20.77
2018-09-18T06:15:12.114Z,20.77
2018-09-18T06:15:43.230Z,20.74
2018-09-18T06:16:14.419Z,20.73
2018-09-18T06:16:45.598Z,20.77
2018-09-18T06:17:16.724Z,20.84
2018-09-18T06:17:47.970Z,20.90
2018-09-18T06:18:19.102Z,20.96
2018-09-18T06:18:50.281Z,20.99
2018-09-18T06:19:21.406Z,21.02
2018-09-18T06:19:52.523Z,21.03
2018-09-18T06:20:23.668Z,21.06
2018-09-18T06:20:54.848Z,21.09
2018-09-18T06:21:26.054Z,21.11
2018-09-18T06:21:57.229Z,21.13
2018-09-18T06:22:28.370Z,21.13
2018-09-18T06:22:59.488Z,21.15
2018-09-18T06:23:30.641Z,21.23
2018-09-18T06:24:01.807Z,21.30
2018-09-18T06:24:32.944Z,21.34
2018-09-18T06:25:04.069Z,21.37
2018-09-18T06:25:35.254Z,21.38
2018-09-18T06:26:06.441Z,21.40
2018-09-18T06:26:37.659Z,21.38
2018-09-18T06:27:08.780Z,21.38
2018-09-18T06:27:39.899Z,21.38
2018-09-18T06:28:11.089Z,21.39
2018-09-18T06:28:42.276Z,21.43
2018-09-18T06:29:13.452Z,21.50
2018-09-18T06:29:44.620Z,21.55
2018-09-18T06:30:15.739Z,21.58
2018-09-18T06:30:46.851Z,21.57
2018-09-18T06:31:17.973Z,21.56
2018-09-18T06:31:49.136Z,21.58
2018-09-18T06:32:20.270Z,21.53
2018-09-18T06:32:51.384Z,21.55
2018-09-18T06:33:22.584Z,21.53
2018-09-18T06:33:53.773Z,21.56
2018-09-18T06:34:24.917Z,21.50
2018-09-18T06:34:56.040Z,21.52
2018-09-18T06:35:27.170Z,21.50
2018-09-18T06:35:58.309Z,21.45
2018-09-18T06:36:29.453Z,21.38
2018-09-18T06:37:00.662Z,21.37
2018-09-18T06:37:31.739Z,21.37
2018-09-18T06:38:02.926Z,21.22
2018-09-18T06:38:34.132Z,21.37
2018-09-18T06:39:05.340Z,21.41
2018-09-18T06:39:36.576Z,21.41
2018-09-18T06:40:07.699Z,21.38
2018-09-18T06:40:38.849Z,21.36
2018-09-18T06:41:09.983Z,21.37